Houma, Louisiana
Current Conditions -  °F | °C
As of 3:47 PM on Thursday 23 Oct 2014 (Local Time) from KHUM Reporting Station
Clear Clear  
Wind Chill: 77°   Ceiling: Unl
Heat Index: 78°   Visibility: 7mi
Dew Point: 48°   Wind: 7mph
Humidity: 36%   Direction: 20°NNE
Pressure: 30.03"   Gusts: NA
Location:  29.6°N, 90.72°W
Report Text: KHUM 232047Z 02006KT 7SM SKC 25/09 A3003 RMK ATIS T VA/RY36 DV
Loading
Personal Weather Stations






























Interactive Weather Map New forecast layout! Learn more

10-Day Weather Forecast

Advertisements
Track Severe Weather on mobile